首页
METAR-TAF:

METAR-TAF

机场 :

Muskoka, 安大略省, 加拿大

纬度: 44-58N, 经度: 079-18W, 海拔: 280米

当前天气观测

该预报发布于1小时和19分钟前的16:00 UTC
风速5节,风向东转东南,在北转东北南转南东之间变化
温度 21°C
湿度 49%
气压 1017 hPa
能見度: 14.5公里
少量云层高于4200英尺

METAR: CYQA 171600Z AUTO 11005KT 020V160 9SM FEW042 21/10 A3002 RMK SLP170 DENSITY ALT 1600FT

时间: 13:19 (17:19 UTC)

预报

该预报发布于3小时和41分钟前的13:38 UTC
预报有效从17日的 14点(UTC)到 18日的 02点(UTC)
风速3节,风向多变
能見度: 10公里
少量云层高于12000英尺
从 17日的 1600点(UTC)
风速6节,风向
能見度: 10公里
散云层高于4000英尺
成为
从 17日的 21点(UTC)到 17日的 23点(UTC)
风速3节,风向多变

TAF: CYQA 171338Z 1714/1802 VRB03KT P6SM FEW120 FM171600 19006KT P6SM SCT040 BECMG 1721/1723 VRB03KT RMK FCST BASED ON AUTO OBS. NXT FCST BY 172000Z

超过4000个机场的气象观测和天气预报(METAR&TAF报告)。

可查询的气象台以黄色和红色小点在地图上表示。

将鼠标移到小点上方,可查看气象台名称。

然后点击查看天气观测和预报。

如需切换地图:点击带黑十字的绿色按钮放大地图;点击带横线的绿色按钮缩小地图;或者点击绿色箭头查看邻近地区的地图。


METAR-TAF: